createdAt,value
2018-02-15T00:00:21.433Z,4.29
2018-02-15T00:01:30.838Z,4.26
2018-02-15T00:02:40.573Z,4.24
2018-02-15T00:03:50.425Z,4.28
2018-02-15T00:04:59.883Z,4.31
2018-02-15T00:06:09.071Z,4.31
2018-02-15T00:07:19.224Z,4.36
2018-02-15T00:08:28.982Z,4.25
2018-02-15T00:09:38.554Z,4.32
2018-02-15T00:10:48.089Z,4.24
2018-02-15T00:11:57.925Z,4.36
2018-02-15T00:13:08.062Z,4.34
2018-02-15T00:14:17.545Z,4.32
2018-02-15T00:15:26.729Z,4.21
2018-02-15T00:16:36.443Z,4.34
2018-02-15T00:17:45.629Z,4.39
2018-02-15T00:18:54.865Z,4.35
2018-02-15T00:20:04.587Z,4.31
2018-02-15T00:21:14.562Z,4.36
2018-02-15T00:22:24.007Z,4.24
2018-02-15T00:23:33.719Z,4.26
2018-02-15T00:24:42.639Z,4.21
2018-02-15T00:25:52.359Z,4.25
2018-02-15T00:27:01.542Z,4.32
2018-02-15T00:28:11.283Z,4.26
2018-02-15T00:29:20.736Z,4.24
2018-02-15T00:30:29.914Z,4.24
2018-02-15T00:31:39.674Z,4.21
2018-02-15T00:32:49.671Z,4.21
2018-02-15T00:33:59.387Z,4.24
2018-02-15T00:35:08.897Z,4.21
2018-02-15T00:36:18.082Z,4.21
2018-02-15T00:37:27.791Z,4.28
2018-02-15T00:38:37.504Z,4.21
2018-02-15T00:39:46.962Z,4.34
2018-02-15T00:40:56.157Z,4.35
2018-02-15T00:42:05.871Z,4.31
2018-02-15T00:43:15.586Z,4.36
2018-02-15T00:44:24.764Z,4.29
2018-02-15T00:45:34.059Z,4.25
2018-02-15T00:46:43.774Z,4.36
2018-02-15T00:47:53.259Z,4.36
2018-02-15T00:49:02.976Z,4.34
2018-02-15T00:50:11.894Z,4.28
2018-02-15T00:51:21.346Z,4.28
2018-02-15T00:52:31.052Z,4.31
2018-02-15T00:53:41.056Z,4.28
2018-02-15T00:54:50.792Z,4.26
2018-02-15T00:55:59.983Z,4.29
2018-02-15T00:57:09.161Z,4.28
2018-02-15T00:58:19.143Z,4.34
2018-02-15T00:59:28.858Z,4.29
2018-02-15T01:00:38.364Z,4.29
2018-02-15T01:01:47.810Z,4.32
2018-02-15T01:02:57.788Z,4.42
2018-02-15T01:04:07.545Z,4.36
2018-02-15T01:05:16.999Z,4.26
2018-02-15T01:06:26.448Z,4.26
2018-02-15T01:07:35.693Z,4.31
2018-02-15T01:08:45.404Z,4.32
2018-02-15T01:09:55.210Z,4.29
2018-02-15T01:11:04.664Z,4.32
2018-02-15T01:12:14.434Z,4.26
2018-02-15T01:13:24.019Z,4.26
2018-02-15T01:14:33.476Z,4.35
2018-02-15T01:15:42.719Z,4.36
2018-02-15T01:16:52.165Z,4.32
2018-02-15T01:18:01.653Z,4.36
2018-02-15T01:19:11.654Z,4.39
2018-02-15T01:20:21.374Z,4.38
2018-02-15T01:21:30.816Z,4.32
2018-02-15T01:22:40.333Z,4.36
2018-02-15T01:23:50.072Z,4.44
2018-02-15T01:24:59.268Z,4.42
2018-02-15T01:26:09.024Z,4.34
2018-02-15T01:27:19.004Z,4.38
2018-02-15T01:28:28.199Z,4.42
2018-02-15T01:29:37.710Z,4.42
2018-02-15T01:30:46.948Z,4.43
2018-02-15T01:31:56.655Z,4.44
2018-02-15T01:33:06.134Z,4.47
2018-02-15T01:34:16.108Z,4.5
2018-02-15T01:35:26.060Z,4.49
2018-02-15T01:36:35.242Z,4.61
2018-02-15T01:37:44.609Z,4.53
2018-02-15T01:38:54.595Z,4.47
2018-02-15T01:40:04.303Z,4.5
2018-02-15T01:41:14.012Z,4.59
2018-02-15T01:42:23.770Z,4.61
2018-02-15T01:43:33.480Z,4.46
2018-02-15T01:44:43.452Z,4.54
2018-02-15T01:45:53.031Z,4.62
2018-02-15T01:47:02.328Z,4.57
2018-02-15T01:48:12.089Z,4.57
2018-02-15T01:49:22.371Z,4.64
2018-02-15T01:50:31.557Z,4.54
2018-02-15T01:51:41.006Z,4.62
2018-02-15T01:52:50.193Z,4.64
2018-02-15T01:53:59.677Z,4.65
2018-02-15T01:55:09.393Z,4.62
2018-02-15T01:56:19.117Z,4.67
2018-02-15T01:57:28.838Z,4.67
2018-02-15T01:58:38.313Z,4.61
2018-02-15T01:59:48.351Z,4.65
2018-02-15T02:00:57.621Z,4.67
2018-02-15T02:02:07.086Z,4.64
2018-02-15T02:03:16.804Z,4.61
2018-02-15T02:04:26.420Z,4.67
2018-02-15T02:05:35.676Z,4.64
2018-02-15T02:06:44.927Z,4.62
2018-02-15T02:07:54.490Z,4.72
2018-02-15T02:09:04.209Z,4.67
2018-02-15T02:10:13.670Z,4.74
2018-02-15T02:11:23.393Z,4.69
2018-02-15T02:12:33.108Z,4.68
2018-02-15T02:13:42.558Z,4.68
2018-02-15T02:14:52.011Z,4.67
2018-02-15T02:16:01.464Z,4.67
2018-02-15T02:17:10.925Z,4.64
2018-02-15T02:18:20.388Z,4.71
2018-02-15T02:19:29.848Z,4.68
2018-02-15T02:20:39.036Z,4.69
2018-02-15T02:21:48.760Z,4.75
2018-02-15T02:22:58.481Z,4.65
2018-02-15T02:24:07.947Z,4.65
2018-02-15T02:25:17.402Z,4.69
2018-02-15T02:26:26.864Z,4.67
2018-02-15T02:27:36.589Z,4.71
2018-02-15T02:28:46.056Z,4.68
2018-02-15T02:29:55.512Z,4.74
2018-02-15T02:31:04.995Z,4.71
2018-02-15T02:32:14.713Z,4.68
2018-02-15T02:33:24.178Z,4.72
2018-02-15T02:34:34.169Z,4.71
2018-02-15T02:35:43.905Z,4.75
2018-02-15T02:36:53.632Z,4.83
2018-02-15T02:38:03.359Z,4.79
2018-02-15T02:39:12.816Z,4.71
2018-02-15T02:40:22.541Z,4.71
2018-02-15T02:41:31.993Z,4.68
2018-02-15T02:42:41.450Z,4.74
2018-02-15T02:43:51.165Z,4.72
2018-02-15T02:45:00.346Z,4.68
2018-02-15T02:46:09.795Z,4.65
2018-02-15T02:47:19.252Z,4.68
2018-02-15T02:48:28.987Z,4.74
2018-02-15T02:49:38.174Z,4.72
2018-02-15T02:50:47.357Z,4.77
2018-02-15T02:51:57.079Z,4.69
2018-02-15T02:53:06.796Z,4.79
2018-02-15T02:54:16.249Z,4.74
2018-02-15T02:55:26.226Z,4.77
2018-02-15T02:56:35.690Z,4.77
2018-02-15T02:57:45.144Z,4.83
2018-02-15T02:58:55.120Z,4.86
2018-02-15T03:00:04.846Z,4.8
2018-02-15T03:01:14.036Z,4.79
2018-02-15T03:02:23.761Z,4.77
2018-02-15T03:03:33.738Z,4.68
2018-02-15T03:04:43.725Z,4.67
2018-02-15T03:05:53.451Z,4.68
2018-02-15T03:07:02.369Z,4.72
2018-02-15T03:08:11.556Z,4.68
2018-02-15T03:09:21.012Z,4.74
2018-02-15T03:10:30.459Z,4.71
2018-02-15T03:11:39.912Z,4.74
2018-02-15T03:12:49.359Z,4.72
2018-02-15T03:13:58.805Z,4.75
2018-02-15T03:15:08.261Z,4.69
2018-02-15T03:16:17.709Z,4.72
2018-02-15T03:17:26.894Z,4.72
2018-02-15T03:18:36.605Z,4.68
2018-02-15T03:19:45.526Z,4.77
2018-02-15T03:20:54.975Z,4.74
2018-02-15T03:22:04.950Z,4.79
2018-02-15T03:23:14.139Z,4.79
2018-02-15T03:24:23.586Z,4.74
2018-02-15T03:25:33.031Z,4.72
2018-02-15T03:26:42.744Z,4.8
2018-02-15T03:27:51.924Z,4.75
2018-02-15T03:29:01.634Z,4.68
2018-02-15T03:30:11.346Z,4.67
2018-02-15T03:31:21.331Z,4.74
2018-02-15T03:32:31.045Z,4.77
2018-02-15T03:33:40.502Z,4.72
2018-02-15T03:34:49.685Z,4.64
2018-02-15T03:35:58.602Z,4.65
2018-02-15T03:37:08.317Z,4.68
2018-02-15T03:38:18.049Z,4.71
2018-02-15T03:39:28.028Z,4.74
2018-02-15T03:40:38.007Z,4.64
2018-02-15T03:41:47.454Z,4.68
2018-02-15T03:42:57.169Z,4.67
2018-02-15T03:44:07.153Z,4.69
2018-02-15T03:45:16.338Z,4.59
2018-02-15T03:46:26.066Z,4.56
2018-02-15T03:47:35.780Z,4.43
2018-02-15T03:48:45.756Z,4.53
2018-02-15T03:49:54.676Z,4.39
2018-02-15T03:51:04.385Z,4.46
2018-02-15T03:52:14.105Z,4.38
2018-02-15T03:53:23.550Z,4.25
2018-02-15T03:54:33.270Z,4.35
2018-02-15T03:55:42.982Z,4.25
2018-02-15T03:56:52.963Z,4.31
2018-02-15T03:58:02.680Z,4.24
2018-02-15T03:59:12.397Z,4.24
2018-02-15T04:00:21.315Z,4.24
2018-02-15T04:01:30.761Z,4.16
2018-02-15T04:02:40.202Z,4.1
2018-02-15T04:03:49.650Z,3.98
2018-02-15T04:04:59.362Z,3.95
2018-02-15T04:06:08.550Z,3.81
2018-02-15T04:07:17.469Z,3.68
2018-02-15T04:08:26.917Z,3.57
2018-02-15T04:09:36.365Z,3.5
2018-02-15T04:10:46.075Z,3.49
2018-02-15T04:11:55.790Z,3.44
2018-02-15T04:13:05.508Z,3.45
2018-02-15T04:14:15.229Z,3.37
2018-02-15T04:15:25.209Z,3.22
2018-02-15T04:16:34.919Z,3.25
2018-02-15T04:17:44.102Z,3.31
2018-02-15T04:18:53.284Z,3.12
2018-02-15T04:20:03.271Z,3.12
2018-02-15T04:21:12.982Z,3.12
2018-02-15T04:22:22.690Z,3.16
2018-02-15T04:23:31.902Z,3.13
2018-02-15T04:24:41.348Z,3.01
2018-02-15T04:25:51.062Z,3.12
2018-02-15T04:27:00.510Z,2.98
2018-02-15T04:28:09.696Z,2.89
2018-02-15T04:29:19.144Z,2.86
2018-02-15T04:30:28.864Z,2.81
2018-02-15T04:31:38.312Z,2.84
2018-02-15T04:32:48.295Z,2.8
2018-02-15T04:33:58.022Z,2.79
2018-02-15T04:35:06.939Z,2.81
2018-02-15T04:36:16.388Z,2.71
2018-02-15T04:37:25.841Z,2.69
2018-02-15T04:38:35.290Z,2.61
2018-02-15T04:39:44.208Z,2.53
2018-02-15T04:40:53.659Z,2.59
2018-02-15T04:42:02.577Z,2.48
2018-02-15T04:43:12.554Z,2.48
2018-02-15T04:44:21.466Z,2.5
2018-02-15T04:45:30.651Z,2.5
2018-02-15T04:46:39.569Z,2.48
2018-02-15T04:47:49.014Z,2.47
2018-02-15T04:48:58.462Z,2.37
2018-02-15T04:50:07.909Z,2.4
2018-02-15T04:51:17.359Z,2.33
2018-02-15T04:52:26.545Z,2.33
2018-02-15T04:53:35.466Z,2.36
2018-02-15T04:54:44.921Z,2.3
2018-02-15T04:55:54.367Z,2.36
2018-02-15T04:57:04.142Z,2.29
2018-02-15T04:58:13.592Z,2.27
2018-02-15T04:59:23.575Z,2.25
2018-02-15T05:00:33.562Z,2.29
2018-02-15T05:01:42.745Z,2.33
2018-02-15T05:02:52.202Z,2.29
2018-02-15T05:04:01.647Z,2.33
2018-02-15T05:05:11.160Z,2.36
2018-02-15T05:06:20.668Z,2.27
2018-02-15T05:07:30.114Z,2.25
2018-02-15T05:08:39.826Z,2.3
2018-02-15T05:09:49.007Z,2.23
2018-02-15T05:10:58.490Z,2.29
2018-02-15T05:12:08.262Z,2.22
2018-02-15T05:13:17.732Z,2.22
2018-02-15T05:14:26.916Z,2.3
2018-02-15T05:15:36.793Z,2.19
2018-02-15T05:16:46.503Z,2.18
2018-02-15T05:17:56.212Z,2.23
2018-02-15T05:19:06.189Z,2.22
2018-02-15T05:20:15.907Z,2.23
2018-02-15T05:21:25.625Z,2.2
2018-02-15T05:22:35.118Z,2.14
2018-02-15T05:23:43.772Z,2.15
2018-02-15T05:24:53.476Z,2.15
2018-02-15T05:26:02.929Z,2.11
2018-02-15T05:27:12.904Z,2.15
2018-02-15T05:28:21.831Z,2.18
2018-02-15T05:29:31.642Z,2.14
2018-02-15T05:30:41.390Z,2.15
2018-02-15T05:31:51.102Z,2.11
2018-02-15T05:33:00.819Z,2.07
2018-02-15T05:34:10.528Z,2.14
2018-02-15T05:35:20.502Z,2.15
2018-02-15T05:36:29.953Z,2.11
2018-02-15T05:37:39.133Z,2.18
2018-02-15T05:38:49.118Z,2.12
2018-02-15T05:39:58.858Z,2.11
2018-02-15T05:41:08.301Z,2.15
2018-02-15T05:42:18.016Z,2.11
2018-02-15T05:43:27.994Z,2.07
2018-02-15T05:44:37.970Z,2.04
2018-02-15T05:45:48.058Z,2.05
2018-02-15T05:46:57.614Z,2.04
2018-02-15T05:48:07.073Z,2.08
2018-02-15T05:49:16.325Z,2.02
2018-02-15T05:50:26.297Z,2.04
2018-02-15T05:51:35.742Z,2.11
2018-02-15T05:52:45.724Z,2.04
2018-02-15T05:53:54.987Z,2.07
2018-02-15T05:55:04.963Z,2.07
2018-02-15T05:56:14.664Z,2.08
2018-02-15T05:57:24.358Z,2.07
2018-02-15T05:58:34.356Z,2.01
2018-02-15T05:59:43.869Z,2.02
2018-02-15T06:00:53.585Z,2
2018-02-15T06:02:02.770Z,2.05
2018-02-15T06:03:12.448Z,2.04
2018-02-15T06:04:22.442Z,2.02
2018-02-15T06:05:31.671Z,2.04
2018-02-15T06:06:41.501Z,2.04
2018-02-15T06:07:50.709Z,2.04
2018-02-15T06:08:59.891Z,2.09
2018-02-15T06:10:09.712Z,2.04
2018-02-15T06:11:19.434Z,2.01
2018-02-15T06:12:29.546Z,2.04
2018-02-15T06:13:38.999Z,2.05
2018-02-15T06:14:48.711Z,2.02
2018-02-15T06:15:57.981Z,2.07
2018-02-15T06:17:07.697Z,2.02
2018-02-15T06:18:16.968Z,2.04
2018-02-15T06:19:26.953Z,2.02
2018-02-15T06:20:36.669Z,2.04
2018-02-15T06:21:46.377Z,2.02
2018-02-15T06:22:55.946Z,2.05
2018-02-15T06:24:05.139Z,2.11
2018-02-15T06:25:14.336Z,2.08
2018-02-15T06:26:24.316Z,2.07
2018-02-15T06:27:33.502Z,2.22
2018-02-15T06:28:42.950Z,2.19
2018-02-15T06:29:52.407Z,2.23
2018-02-15T06:31:01.853Z,2.11
2018-02-15T06:32:11.037Z,2.14
2018-02-15T06:33:20.219Z,2.22
2018-02-15T06:34:29.985Z,2.23
2018-02-15T06:35:40.006Z,2.23
2018-02-15T06:36:49.452Z,2.27
2018-02-15T06:37:59.264Z,2.19
2018-02-15T06:39:08.987Z,2.3
2018-02-15T06:40:18.229Z,2.36
2018-02-15T06:41:28.231Z,2.33
2018-02-15T06:42:37.412Z,2.41
2018-02-15T06:43:46.858Z,2.38
2018-02-15T06:44:56.855Z,2.51
2018-02-15T06:46:06.581Z,2.53
2018-02-15T06:47:16.368Z,2.48
2018-02-15T06:48:25.598Z,2.48
2018-02-15T06:49:34.784Z,2.44
2018-02-15T06:50:44.235Z,2.56
2018-02-15T06:51:53.964Z,2.61
2018-02-15T06:53:03.593Z,2.58
2018-02-15T06:54:13.139Z,2.59
2018-02-15T06:55:22.587Z,2.51
2018-02-15T06:56:32.038Z,2.56
2018-02-15T06:57:41.222Z,2.62
2018-02-15T06:58:51.200Z,2.65
2018-02-15T07:00:00.382Z,2.71
2018-02-15T07:01:09.625Z,2.71
2018-02-15T07:02:19.605Z,2.69
2018-02-15T07:03:29.626Z,2.76
2018-02-15T07:04:39.343Z,2.69
2018-02-15T07:05:48.786Z,2.79
2018-02-15T07:06:58.495Z,2.71
2018-02-15T07:08:07.943Z,2.77
2018-02-15T07:09:17.395Z,2.83
2018-02-15T07:10:27.114Z,2.74
2018-02-15T07:11:36.823Z,2.81
2018-02-15T07:12:46.008Z,2.8
2018-02-15T07:13:55.191Z,2.83
2018-02-15T07:15:04.898Z,2.84
2018-02-15T07:16:13.814Z,2.84
2018-02-15T07:17:23.531Z,2.89
2018-02-15T07:18:32.979Z,2.86
2018-02-15T07:19:42.689Z,2.89
2018-02-15T07:20:52.138Z,2.92
2018-02-15T07:22:01.590Z,2.98
2018-02-15T07:23:11.573Z,2.92
2018-02-15T07:24:21.016Z,2.99
2018-02-15T07:25:30.996Z,3.02
2018-02-15T07:26:40.778Z,3.02
2018-02-15T07:27:50.493Z,2.98
2018-02-15T07:28:59.941Z,3.07
2018-02-15T07:30:09.122Z,3.1
2018-02-15T07:31:18.829Z,3.08
2018-02-15T07:32:28.288Z,3.15
2018-02-15T07:33:37.738Z,3.15
2018-02-15T07:34:47.186Z,3.07
2018-02-15T07:35:56.634Z,3.12
2018-02-15T07:37:05.819Z,3.23
2018-02-15T07:38:15.532Z,3.2
2018-02-15T07:39:25.245Z,3.23
2018-02-15T07:40:34.958Z,3.31
2018-02-15T07:41:44.933Z,3.35
2018-02-15T07:42:54.121Z,3.31
2018-02-15T07:44:03.840Z,3.37
2018-02-15T07:45:13.589Z,3.44
2018-02-15T07:46:22.777Z,3.41
2018-02-15T07:47:31.970Z,3.49
2018-02-15T07:48:42.001Z,3.44
2018-02-15T07:49:51.452Z,3.46
2018-02-15T07:51:01.175Z,3.49
2018-02-15T07:52:10.624Z,3.54
2018-02-15T07:53:19.814Z,3.64
2018-02-15T07:54:28.734Z,3.54
2018-02-15T07:55:38.186Z,3.57
2018-02-15T07:56:47.371Z,3.7
2018-02-15T07:57:57.089Z,3.7
2018-02-15T07:59:06.545Z,3.68
2018-02-15T08:00:16.262Z,3.74
2018-02-15T08:01:25.978Z,3.77
2018-02-15T08:02:34.975Z,3.7
2018-02-15T08:03:44.500Z,3.8
2018-02-15T08:04:53.683Z,3.84
2018-02-15T08:06:02.864Z,3.82
2018-02-15T08:07:12.050Z,3.9
2018-02-15T08:08:21.493Z,3.84
2018-02-15T08:09:30.950Z,3.82
2018-02-15T08:10:40.405Z,3.9
2018-02-15T08:11:49.857Z,3.88
2018-02-15T08:12:59.576Z,3.84
2018-02-15T08:14:08.497Z,3.93
2018-02-15T08:15:17.967Z,3.96
2018-02-15T08:16:27.681Z,3.98
2018-02-15T08:17:37.418Z,3.9
2018-02-15T08:18:47.154Z,3.98
2018-02-15T08:19:56.869Z,3.98
2018-02-15T08:21:06.580Z,3.99
2018-02-15T08:22:16.064Z,3.98
2018-02-15T08:23:25.247Z,3.98
2018-02-15T08:24:34.969Z,4.08
2018-02-15T08:25:44.687Z,4
2018-02-15T08:26:54.668Z,4.1
2018-02-15T08:28:04.381Z,4.07
2018-02-15T08:29:13.836Z,4.2
2018-02-15T08:30:23.817Z,4.24
2018-02-15T08:31:33.274Z,4.21
2018-02-15T08:32:42.461Z,4.25
2018-02-15T08:33:52.176Z,4.26
2018-02-15T08:35:02.159Z,4.26
2018-02-15T08:36:11.612Z,4.36
2018-02-15T08:37:21.066Z,4.35
2018-02-15T08:38:30.251Z,4.32
2018-02-15T08:39:40.250Z,4.24
2018-02-15T08:40:49.436Z,4.24
2018-02-15T08:41:58.623Z,4.24
2018-02-15T08:43:07.818Z,4.35
2018-02-15T08:44:17.290Z,4.25
2018-02-15T08:45:27.117Z,4.34
2018-02-15T08:46:36.035Z,4.28
2018-02-15T08:47:45.818Z,4.28
2018-02-15T08:48:55.268Z,4.26
2018-02-15T08:50:04.723Z,4.28
2018-02-15T08:51:14.165Z,4.28
2018-02-15T08:52:23.885Z,4.26
2018-02-15T08:53:33.332Z,4.31
2018-02-15T08:54:42.254Z,4.34
2018-02-15T08:55:51.723Z,4.38
2018-02-15T08:57:01.186Z,4.35
2018-02-15T08:58:10.991Z,4.42
2018-02-15T08:59:20.437Z,4.36
2018-02-15T09:00:29.644Z,4.47
2018-02-15T09:01:38.578Z,4.43
2018-02-15T09:02:47.761Z,4.53
2018-02-15T09:03:57.204Z,4.59
2018-02-15T09:05:06.124Z,4.56
2018-02-15T09:06:15.574Z,4.67
2018-02-15T09:07:25.022Z,4.67
2018-02-15T09:08:34.471Z,4.8
2018-02-15T09:09:43.921Z,4.71
2018-02-15T09:10:53.364Z,4.79
2018-02-15T09:12:02.814Z,4.83
2018-02-15T09:13:12.260Z,4.83
2018-02-15T09:14:21.710Z,4.8
2018-02-15T09:15:31.426Z,4.75
2018-02-15T09:16:40.867Z,4.8
2018-02-15T09:17:50.052Z,4.86
2018-02-15T09:18:59.783Z,4.93
2018-02-15T09:20:09.497Z,4.9
2018-02-15T09:21:19.473Z,4.9
2018-02-15T09:22:28.928Z,4.84
2018-02-15T09:23:38.373Z,4.9
2018-02-15T09:24:48.417Z,4.83
2018-02-15T09:25:58.139Z,4.88
2018-02-15T09:27:07.747Z,4.87
2018-02-15T09:28:17.192Z,4.8
2018-02-15T09:29:26.909Z,4.83
2018-02-15T09:30:36.626Z,4.86
2018-02-15T09:31:45.813Z,4.93
2018-02-15T09:32:55.524Z,4.97
2018-02-15T09:34:04.996Z,4.99
2018-02-15T09:35:14.983Z,4.91
2018-02-15T09:36:24.242Z,4.91
2018-02-15T09:37:33.427Z,4.87
2018-02-15T09:38:42.874Z,4.93
2018-02-15T09:39:52.586Z,4.88
2018-02-15T09:41:02.329Z,4.88
2018-02-15T09:42:11.778Z,4.93
2018-02-15T09:43:21.765Z,4.94
2018-02-15T09:44:31.479Z,5.05
2018-02-15T09:45:41.242Z,5.09
2018-02-15T09:46:50.743Z,5.05
2018-02-15T09:47:59.668Z,5.02
2018-02-15T09:49:09.119Z,4.97
2018-02-15T09:50:18.319Z,4.84
2018-02-15T09:51:27.769Z,4.83
2018-02-15T09:52:37.239Z,4.77
2018-02-15T09:53:46.950Z,4.75
2018-02-15T09:54:56.666Z,4.91
2018-02-15T09:56:05.875Z,4.91
2018-02-15T09:57:15.327Z,4.91
2018-02-15T09:58:24.780Z,4.88
2018-02-15T09:59:34.492Z,4.87
2018-02-15T10:00:43.948Z,4.97
2018-02-15T10:01:53.418Z,4.97
2018-02-15T10:03:02.865Z,5.04
2018-02-15T10:04:12.321Z,5.14
2018-02-15T10:05:21.771Z,5.15
2018-02-15T10:06:31.487Z,5.24
2018-02-15T10:07:41.202Z,5.32
2018-02-15T10:08:50.666Z,5.32
2018-02-15T10:10:00.382Z,5.26
2018-02-15T10:11:10.122Z,5.38
2018-02-15T10:12:19.843Z,5.29
2018-02-15T10:13:29.556Z,5.29
2018-02-15T10:14:39.007Z,5.29
2018-02-15T10:15:48.486Z,5.33
2018-02-15T10:16:58.283Z,5.35
2018-02-15T10:18:07.995Z,5.33
2018-02-15T10:19:17.200Z,5.41
2018-02-15T10:20:26.933Z,5.49
2018-02-15T10:21:36.615Z,5.51
2018-02-15T10:22:45.902Z,5.48
2018-02-15T10:23:55.412Z,5.49
2018-02-15T10:25:04.872Z,5.38
2018-02-15T10:26:14.342Z,5.41
2018-02-15T10:27:23.528Z,5.42
2018-02-15T10:28:33.323Z,5.56
2018-02-15T10:29:43.314Z,5.42
2018-02-15T10:30:52.500Z,5.38
2018-02-15T10:32:01.967Z,5.4
2018-02-15T10:33:11.154Z,5.47
2018-02-15T10:34:20.897Z,5.42
2018-02-15T10:35:30.081Z,5.42
2018-02-15T10:36:39.824Z,5.47
2018-02-15T10:37:49.055Z,5.38
2018-02-15T10:38:58.770Z,5.37
2018-02-15T10:40:08.243Z,5.32
2018-02-15T10:41:17.695Z,5.33
2018-02-15T10:42:27.499Z,5.23
2018-02-15T10:43:36.741Z,5.12
2018-02-15T10:44:45.924Z,5.2
2018-02-15T10:45:55.113Z,5.2
2018-02-15T10:47:04.565Z,5.08
2018-02-15T10:48:14.291Z,5.17
2018-02-15T10:49:24.006Z,5.06
2018-02-15T10:50:33.456Z,5.15
2018-02-15T10:51:42.638Z,5.12
2018-02-15T10:52:52.356Z,5.11
2018-02-15T10:54:02.341Z,5.08
2018-02-15T10:55:12.054Z,5.2
2018-02-15T10:56:21.240Z,5.2
2018-02-15T10:57:30.957Z,5.2
2018-02-15T10:58:40.411Z,5.15
2018-02-15T10:59:49.859Z,5.17
2018-02-15T11:00:59.989Z,5.29
2018-02-15T11:02:09.436Z,5.29
2018-02-15T11:03:18.637Z,5.44
2018-02-15T11:04:28.373Z,5.38
2018-02-15T11:05:37.882Z,5.41
2018-02-15T11:06:47.598Z,5.19
2018-02-15T11:07:57.050Z,5.33
2018-02-15T11:09:06.535Z,5.4
2018-02-15T11:10:16.028Z,5.47
2018-02-15T11:11:25.745Z,5.48
2018-02-15T11:12:35.195Z,5.52
2018-02-15T11:13:44.656Z,5.52
2018-02-15T11:14:54.109Z,5.48
2018-02-15T11:16:04.159Z,5.35
2018-02-15T11:17:14.141Z,5.27
2018-02-15T11:18:23.334Z,5.2
2018-02-15T11:19:32.795Z,5.42
2018-02-15T11:20:41.982Z,5.45
2018-02-15T11:21:51.743Z,5.48
2018-02-15T11:23:01.466Z,5.52
2018-02-15T11:24:10.653Z,5.41
2018-02-15T11:25:20.102Z,5.29
2018-02-15T11:26:29.827Z,5.33
2018-02-15T11:27:39.566Z,5.44
2018-02-15T11:28:49.550Z,5.66
2018-02-15T11:29:58.203Z,5.63
2018-02-15T11:31:07.653Z,5.69
2018-02-15T11:32:17.108Z,5.77
2018-02-15T11:33:27.091Z,5.85
2018-02-15T11:34:36.553Z,5.84
2018-02-15T11:35:46.272Z,5.69
2018-02-15T11:36:55.999Z,5.7
2018-02-15T11:38:05.719Z,5.7
2018-02-15T11:39:15.171Z,5.78
2018-02-15T11:40:25.222Z,5.81
2018-02-15T11:41:34.405Z,6.05
2018-02-15T11:42:43.591Z,6.08
2018-02-15T11:43:53.574Z,6.01
2018-02-15T11:45:03.027Z,5.93
2018-02-15T11:46:12.470Z,5.99
2018-02-15T11:47:21.650Z,5.96
2018-02-15T11:48:31.099Z,5.88
2018-02-15T11:49:40.295Z,5.83
2018-02-15T11:50:49.520Z,5.92
2018-02-15T11:51:59.237Z,5.9
2018-02-15T11:53:08.157Z,6.01
2018-02-15T11:54:18.225Z,6.03
2018-02-15T11:55:27.756Z,5.99
2018-02-15T11:56:37.492Z,5.99
2018-02-15T11:57:46.682Z,5.99
2018-02-15T11:58:56.403Z,5.93
2018-02-15T12:00:05.322Z,5.96
2018-02-15T12:01:14.772Z,6.02
2018-02-15T12:02:24.490Z,5.99
2018-02-15T12:03:33.948Z,6.05
2018-02-15T12:04:43.665Z,6.03
2018-02-15T12:05:52.850Z,6.16
2018-02-15T12:07:02.841Z,6.1
2018-02-15T12:08:12.292Z,6.06
2018-02-15T12:09:21.743Z,6.01
2018-02-15T12:10:31.726Z,6.05
2018-02-15T12:11:41.178Z,6.01
2018-02-15T12:12:50.807Z,6.02
2018-02-15T12:14:00.863Z,5.98
2018-02-15T12:15:10.047Z,6.06
2018-02-15T12:16:19.228Z,5.99
2018-02-15T12:17:28.417Z,5.96
2018-02-15T12:18:37.872Z,5.98
2018-02-15T12:19:47.664Z,5.99
2018-02-15T12:20:57.425Z,6.01
2018-02-15T12:22:07.412Z,6.02
2018-02-15T12:23:16.600Z,5.9
2018-02-15T12:24:26.319Z,5.84
2018-02-15T12:25:35.775Z,5.81
2018-02-15T12:26:45.763Z,5.81
2018-02-15T12:27:55.489Z,5.77
2018-02-15T12:29:05.209Z,5.85
2018-02-15T12:30:14.659Z,5.77
2018-02-15T12:31:24.115Z,6.01
2018-02-15T12:32:34.096Z,6.02
2018-02-15T12:33:43.337Z,6.28
2018-02-15T12:34:52.257Z,6.43
2018-02-15T12:36:01.706Z,6.53
2018-02-15T12:37:11.161Z,6.42
2018-02-15T12:38:20.377Z,6.5
2018-02-15T12:39:29.833Z,6.68
2018-02-15T12:40:39.023Z,7.07
2018-02-15T12:41:48.469Z,7.27
2018-02-15T12:42:58.204Z,7.16
2018-02-15T12:44:07.392Z,7.11
2018-02-15T12:45:17.103Z,7.09
2018-02-15T12:46:26.558Z,6.94
2018-02-15T12:47:36.013Z,6.94
2018-02-15T12:48:45.499Z,6.89
2018-02-15T12:49:55.223Z,6.89
2018-02-15T12:51:04.674Z,6.87
2018-02-15T12:52:14.658Z,6.81
2018-02-15T12:53:24.109Z,6.78
2018-02-15T12:54:33.833Z,6.86
2018-02-15T12:55:42.750Z,6.94
2018-02-15T12:56:52.202Z,6.94
2018-02-15T12:58:01.920Z,6.91
2018-02-15T12:59:11.157Z,6.81
2018-02-15T13:00:20.409Z,6.72
2018-02-15T13:01:30.774Z,6.71
2018-02-15T13:02:40.107Z,6.6
2018-02-15T13:03:49.558Z,6.64
2018-02-15T13:04:58.743Z,6.68
2018-02-15T13:06:07.975Z,6.61
2018-02-15T13:07:17.428Z,6.61
2018-02-15T13:08:26.898Z,6.55
2018-02-15T13:09:36.083Z,6.57
2018-02-15T13:10:45.658Z,6.63
2018-02-15T13:11:54.843Z,6.61
2018-02-15T13:13:04.587Z,6.55
2018-02-15T13:14:13.771Z,6.51
2018-02-15T13:15:22.957Z,6.51
2018-02-15T13:16:32.678Z,6.54
2018-02-15T13:17:42.444Z,6.57
2018-02-15T13:18:52.155Z,6.5
2018-02-15T13:20:01.871Z,6.51
2018-02-15T13:21:11.662Z,6.43
2018-02-15T13:22:21.117Z,6.39
2018-02-15T13:23:30.835Z,6.55
2018-02-15T13:24:40.546Z,6.54
2018-02-15T13:25:49.996Z,6.54
2018-02-15T13:26:59.190Z,6.53
2018-02-15T13:28:08.641Z,6.53
2018-02-15T13:29:18.362Z,6.64
2018-02-15T13:30:28.087Z,6.61
2018-02-15T13:31:37.271Z,6.6
2018-02-15T13:32:46.728Z,6.73
2018-02-15T13:33:56.447Z,6.71
2018-02-15T13:35:05.650Z,6.68
2018-02-15T13:36:15.123Z,6.61
2018-02-15T13:37:24.837Z,6.58
2018-02-15T13:38:34.304Z,6.73
2018-02-15T13:39:43.758Z,6.73
2018-02-15T13:40:53.470Z,6.86
2018-02-15T13:42:02.922Z,6.73
2018-02-15T13:43:12.131Z,6.73
2018-02-15T13:44:21.862Z,6.6
2018-02-15T13:45:31.316Z,6.69
2018-02-15T13:46:40.770Z,6.63
2018-02-15T13:47:50.219Z,6.61
2018-02-15T13:48:59.936Z,6.61
2018-02-15T13:50:09.130Z,6.61
2018-02-15T13:51:18.587Z,6.61
2018-02-15T13:52:28.577Z,6.63
2018-02-15T13:53:38.580Z,6.61
2018-02-15T13:54:48.039Z,6.75
2018-02-15T13:55:57.227Z,6.79
2018-02-15T13:57:05.887Z,6.9
2018-02-15T13:58:15.348Z,7.01
2018-02-15T13:59:24.794Z,7.01
2018-02-15T14:00:33.977Z,6.91
2018-02-15T14:01:43.672Z,6.75
2018-02-15T14:02:52.854Z,6.89
2018-02-15T14:04:02.381Z,6.93
2018-02-15T14:05:11.836Z,7.11
2018-02-15T14:06:21.823Z,7.15
2018-02-15T14:07:31.801Z,7.14
2018-02-15T14:08:41.255Z,7.21
2018-02-15T14:09:50.973Z,7.29
2018-02-15T14:11:00.965Z,7.36
2018-02-15T14:12:10.680Z,7.52
2018-02-15T14:13:19.867Z,7.58
2018-02-15T14:14:29.066Z,7.6
2018-02-15T14:15:38.517Z,7.58
2018-02-15T14:16:47.969Z,7.58
2018-02-15T14:17:57.707Z,7.47
2018-02-15T14:19:06.636Z,7.5
2018-02-15T14:20:16.398Z,7.57
2018-02-15T14:21:26.120Z,7.55
2018-02-15T14:22:35.842Z,7.69
2018-02-15T14:23:45.295Z,7.6
2018-02-15T14:24:55.015Z,7.62
2018-02-15T14:26:04.547Z,7.6
2018-02-15T14:27:13.736Z,7.55
2018-02-15T14:28:23.276Z,7.45
2018-02-15T14:29:33.028Z,7.5
2018-02-15T14:30:42.245Z,7.45
2018-02-15T14:31:51.710Z,7.51
2018-02-15T14:33:01.273Z,7.41
2018-02-15T14:34:10.995Z,7.29
2018-02-15T14:35:20.452Z,7.33
2018-02-15T14:36:29.975Z,7.36
2018-02-15T14:37:39.738Z,7.34
2018-02-15T14:38:49.466Z,7.44
2018-02-15T14:39:59.455Z,7.48
2018-02-15T14:41:09.181Z,7.41
2018-02-15T14:42:18.646Z,7.45
2018-02-15T14:43:28.637Z,7.42
2018-02-15T14:44:38.394Z,7.44
2018-02-15T14:45:47.847Z,7.42
2018-02-15T14:46:57.574Z,7.36
2018-02-15T14:48:07.291Z,7.36
2018-02-15T14:49:16.210Z,7.3
2018-02-15T14:50:25.400Z,7.23
2018-02-15T14:51:35.118Z,7.21
2018-02-15T14:52:44.647Z,7.23
2018-02-15T14:53:54.428Z,7.21
2018-02-15T14:55:04.143Z,7.18
2018-02-15T14:56:14.125Z,7.15
2018-02-15T14:57:23.311Z,7.09
2018-02-15T14:58:32.501Z,7.05
2018-02-15T14:59:41.950Z,7.04
2018-02-15T15:00:51.404Z,7.01
2018-02-15T15:02:01.393Z,7.01
2018-02-15T15:03:10.847Z,6.97
2018-02-15T15:04:20.047Z,7.14
2018-02-15T15:05:29.769Z,7.09
2018-02-15T15:06:39.533Z,7.07
2018-02-15T15:07:49.317Z,7.07
2018-02-15T15:08:59.037Z,7.07
2018-02-15T15:10:08.485Z,7.08
2018-02-15T15:11:18.464Z,7.05
2018-02-15T15:12:28.176Z,7.08
2018-02-15T15:13:38.251Z,7.04
2018-02-15T15:14:47.698Z,7.01
2018-02-15T15:15:56.887Z,7.07
2018-02-15T15:17:06.342Z,7.08
2018-02-15T15:18:15.549Z,7.01
2018-02-15T15:19:25.042Z,7.07
2018-02-15T15:20:34.228Z,7.04
2018-02-15T15:21:44.215Z,7.09
2018-02-15T15:22:53.136Z,6.99
2018-02-15T15:24:03.167Z,7.07
2018-02-15T15:25:12.621Z,7.01
2018-02-15T15:26:21.546Z,7.09
2018-02-15T15:27:31.260Z,6.99